createdAt,value
2016-07-31T00:01:00.323Z,"    0"
2016-07-31T00:02:03.973Z,"    0"
2016-07-31T00:03:07.966Z,"    0"
2016-07-31T00:04:11.624Z,"    0"
2016-07-31T00:05:15.282Z,"    0"
2016-07-31T00:06:18.927Z,"    0"
2016-07-31T00:07:22.555Z,"    0"
2016-07-31T00:08:26.206Z,"    0"
2016-07-31T00:10:37.988Z,"    0"
2016-07-31T00:11:41.608Z,"    0"
2016-07-31T00:12:45.455Z,"    0"
2016-07-31T00:13:49.068Z,"    0"
2016-07-31T00:14:52.716Z,"    0"
2016-07-31T00:15:56.342Z,"    0"
2016-07-31T00:16:59.991Z,"    0"
2016-07-31T00:18:03.850Z,"    0"
2016-07-31T00:19:07.507Z,"    0"
2016-07-31T00:20:11.188Z,"    0"
2016-07-31T00:21:14.858Z,"    0"
2016-07-31T00:22:18.718Z,"    0"
2016-07-31T00:23:22.366Z,"    0"
2016-07-31T00:24:26.017Z,"    0"
2016-07-31T00:25:29.688Z,"    0"
2016-07-31T00:26:33.372Z,"    0"
2016-07-31T00:27:37.032Z,"    0"
2016-07-31T00:28:40.693Z,"    0"
2016-07-31T00:29:44.336Z,"    0"
2016-07-31T00:30:47.989Z,"    0"
2016-07-31T00:31:51.881Z,"    0"
2016-07-31T00:32:55.574Z,"    0"
2016-07-31T00:33:59.242Z,"    0"
2016-07-31T00:35:02.860Z,"    0"
2016-07-31T00:36:06.516Z,"    0"
2016-07-31T00:37:10.141Z,"    0"
2016-07-31T00:38:13.789Z,"    0"
2016-07-31T00:39:17.486Z,"    0"
2016-07-31T00:40:21.146Z,"    0"
2016-07-31T00:41:24.791Z,"    0"
2016-07-31T00:42:28.447Z,"    0"
2016-07-31T00:43:32.093Z,"    0"
2016-07-31T00:44:35.758Z,"    0"
2016-07-31T00:45:39.411Z,"    0"
2016-07-31T00:46:43.073Z,"    0"
2016-07-31T00:47:46.686Z,"    0"
2016-07-31T00:48:50.357Z,"    0"
2016-07-31T00:49:54.000Z,"    0"
2016-07-31T00:50:57.661Z,"    0"
2016-07-31T00:52:01.303Z,"    0"
2016-07-31T00:53:04.955Z,"    0"
2016-07-31T00:54:08.628Z,"    0"
2016-07-31T00:55:12.263Z,"    0"
2016-07-31T00:56:15.910Z,"    0"
2016-07-31T00:57:19.577Z,"    0"
2016-07-31T00:58:23.241Z,"    0"
2016-07-31T00:59:26.908Z,"    0"
2016-07-31T01:00:30.550Z,"    0"
2016-07-31T01:01:34.201Z,"    0"
2016-07-31T01:02:37.867Z,"    0"
2016-07-31T01:03:41.739Z,"    0"
2016-07-31T01:04:45.388Z,"    0"
2016-07-31T01:05:49.057Z,"    0"
2016-07-31T01:06:52.706Z,"    0"
2016-07-31T01:07:56.366Z,"    0"
2016-07-31T01:09:00.027Z,"    0"
2016-07-31T01:10:03.683Z,"    0"
2016-07-31T01:11:07.356Z,"    0"
2016-07-31T01:12:11.041Z,"    0"
2016-07-31T01:13:14.692Z,"    0"
2016-07-31T01:14:18.332Z,"    0"
2016-07-31T01:15:22.001Z,"    0"
2016-07-31T01:16:25.660Z,"    0"
2016-07-31T01:17:29.310Z,"    0"
2016-07-31T01:18:32.970Z,"    0"
2016-07-31T01:19:36.628Z,"    0"
2016-07-31T01:20:40.299Z,"    0"
2016-07-31T01:21:43.952Z,"    0"
2016-07-31T01:22:47.611Z,"    0"
2016-07-31T01:23:51.290Z,"    0"
2016-07-31T01:24:54.943Z,"    0"
2016-07-31T01:25:58.781Z,"    0"
2016-07-31T01:27:02.425Z,"    0"
2016-07-31T01:28:06.263Z,"    0"
2016-07-31T01:29:09.923Z,"    0"
2016-07-31T01:30:13.608Z,"    0"
2016-07-31T01:31:17.252Z,"    0"
2016-07-31T01:32:20.913Z,"    0"
2016-07-31T01:33:24.584Z,"    0"
2016-07-31T01:34:28.233Z,"    0"
2016-07-31T01:35:31.905Z,"    0"
2016-07-31T01:36:35.537Z,"    0"
2016-07-31T01:37:39.192Z,"    0"
2016-07-31T01:38:42.840Z,"    0"
2016-07-31T01:39:46.507Z,"    0"
2016-07-31T01:40:50.153Z,"    0"
2016-07-31T01:41:53.820Z,"    0"
2016-07-31T01:42:57.486Z,"    0"
2016-07-31T01:44:01.185Z,"    0"
2016-07-31T01:45:04.854Z,"    0"
2016-07-31T01:46:08.506Z,"    0"
2016-07-31T01:47:12.156Z,"    0"
2016-07-31T01:48:15.809Z,"    0"
2016-07-31T01:49:19.479Z,"    0"
2016-07-31T01:50:23.139Z,"    0"
2016-07-31T01:51:26.832Z,"    0"
2016-07-31T01:52:31.379Z,"    0"
2016-07-31T01:53:35.068Z,"    0"
2016-07-31T01:54:38.931Z,"    0"
2016-07-31T01:55:42.586Z,"    0"
2016-07-31T01:56:46.254Z,"    0"
2016-07-31T01:57:49.886Z,"    0"
2016-07-31T01:58:53.548Z,"    0"
2016-07-31T01:59:57.225Z,"    0"
2016-07-31T02:01:00.873Z,"    0"
2016-07-31T02:02:04.491Z,"    0"
2016-07-31T02:03:08.159Z,"    0"
2016-07-31T02:04:11.830Z,"    0"
2016-07-31T02:05:15.502Z,"    0"
2016-07-31T02:06:19.159Z,"    0"
2016-07-31T02:07:22.822Z,"    0"
2016-07-31T02:08:26.449Z,"    0"
2016-07-31T02:09:30.298Z,"    0"
2016-07-31T02:10:33.929Z,"    0"
2016-07-31T02:11:37.810Z,"    0"
2016-07-31T02:12:41.505Z,"    0"
2016-07-31T02:13:45.172Z,"    0"
2016-07-31T02:14:48.848Z,"    0"
2016-07-31T02:15:52.507Z,"    0"
2016-07-31T02:16:56.348Z,"    0"
2016-07-31T02:17:59.996Z,"    0"
2016-07-31T02:19:03.658Z,"    0"
2016-07-31T02:20:07.306Z,"    0"
2016-07-31T02:21:10.996Z,"    0"
2016-07-31T02:22:14.607Z,"    0"
2016-07-31T02:23:18.239Z,"    0"
2016-07-31T02:24:21.914Z,"    0"
2016-07-31T02:25:25.581Z,"    0"
2016-07-31T02:26:29.243Z,"    0"
2016-07-31T02:27:32.902Z,"    0"
2016-07-31T02:28:36.595Z,"    0"
2016-07-31T02:29:40.470Z,"    0"
2016-07-31T02:30:44.149Z,"    0"
2016-07-31T02:31:47.834Z,"    0"
2016-07-31T02:32:51.487Z,"    0"
2016-07-31T02:33:55.135Z,"    0"
2016-07-31T02:34:58.837Z,"    0"
2016-07-31T02:36:02.535Z,"    0"
2016-07-31T02:37:06.184Z,"    0"
2016-07-31T02:38:09.861Z,"    0"
2016-07-31T02:39:13.531Z,"    0"
2016-07-31T02:40:17.255Z,"    0"
2016-07-31T02:41:21.115Z,"    0"
2016-07-31T02:42:24.771Z,"    0"
2016-07-31T02:44:31.650Z,"    0"
2016-07-31T02:45:35.325Z,"    0"
2016-07-31T02:46:38.979Z,"    0"
2016-07-31T02:47:42.627Z,"    0"
2016-07-31T02:48:46.303Z,"    0"
2016-07-31T02:49:49.937Z,"    0"
2016-07-31T02:50:53.621Z,"    0"
2016-07-31T02:51:57.271Z,"    0"
2016-07-31T02:53:01.111Z,"    0"
2016-07-31T02:54:04.758Z,"    0"
2016-07-31T02:55:08.395Z,"    0"
2016-07-31T02:56:12.863Z,"    0"
2016-07-31T02:57:16.520Z,"    0"
2016-07-31T02:59:24.172Z,"    0"
2016-07-31T03:00:27.846Z,"    0"
2016-07-31T03:01:31.501Z,"    0"
2016-07-31T03:02:35.183Z,"    0"
2016-07-31T03:03:38.820Z,"    0"
2016-07-31T03:04:42.489Z,"    0"
2016-07-31T03:05:46.166Z,"    0"
2016-07-31T03:06:49.796Z,"    0"
2016-07-31T03:07:53.460Z,"    0"
2016-07-31T03:08:57.103Z,"    0"
2016-07-31T03:10:00.732Z,"    0"
2016-07-31T03:11:04.404Z,"    0"
2016-07-31T03:12:08.057Z,"    0"
2016-07-31T03:13:11.714Z,"    0"
2016-07-31T03:14:15.356Z,"    0"
2016-07-31T03:15:19.026Z,"    0"
2016-07-31T03:16:22.688Z,"    0"
2016-07-31T03:17:26.376Z,"    0"
2016-07-31T03:18:30.034Z,"    0"
2016-07-31T03:19:33.673Z,"    0"
2016-07-31T03:20:37.336Z,"    0"
2016-07-31T03:21:40.981Z,"    0"
2016-07-31T03:22:44.850Z,"    0"
2016-07-31T03:23:48.484Z,"    0"
2016-07-31T03:24:52.186Z,"    0"
2016-07-31T03:25:55.827Z,"    0"
2016-07-31T03:26:59.512Z,"    0"
2016-07-31T03:28:03.133Z,"    0"
2016-07-31T03:29:06.784Z,"    0"
2016-07-31T03:30:10.429Z,"    0"
2016-07-31T03:31:14.023Z,"    0"
2016-07-31T03:32:17.696Z,"    0"
2016-07-31T03:33:21.538Z,"    0"
2016-07-31T03:34:25.175Z,"    0"
2016-07-31T03:35:28.851Z,"    0"
2016-07-31T03:36:32.511Z,"    0"
2016-07-31T03:37:36.142Z,"    0"
2016-07-31T03:38:39.802Z,"    0"
2016-07-31T03:39:43.429Z,"    0"
2016-07-31T03:40:47.118Z,"    0"
2016-07-31T03:41:50.773Z,"    0"
2016-07-31T03:42:54.432Z,"    0"
2016-07-31T03:43:58.114Z,"    0"
2016-07-31T03:45:01.780Z,"    0"
2016-07-31T03:46:05.422Z,"    0"
2016-07-31T03:47:09.051Z,"    0"
2016-07-31T03:48:12.712Z,"    0"
2016-07-31T03:49:16.394Z,"    0"
2016-07-31T03:50:20.036Z,"    0"
2016-07-31T03:51:23.678Z,"    0"
2016-07-31T03:52:27.353Z,"    0"
2016-07-31T03:53:31.021Z,"    0"
2016-07-31T03:54:34.697Z,"    0"
2016-07-31T03:55:38.373Z,"    0"
2016-07-31T03:56:41.994Z,"    0"
2016-07-31T03:57:45.643Z,"    0"
2016-07-31T03:58:49.308Z,"    0"
2016-07-31T03:59:52.951Z,"    0"
2016-07-31T04:00:56.607Z,"    0"
2016-07-31T04:02:00.241Z,"    0"
2016-07-31T04:03:03.890Z,"    0"
2016-07-31T04:04:07.546Z,"    0"
2016-07-31T04:05:11.220Z,"    0"
2016-07-31T04:06:14.866Z,"    0"
2016-07-31T04:07:18.531Z,"    0"
2016-07-31T04:08:22.210Z,"    0"
2016-07-31T04:09:25.870Z,"    0"
2016-07-31T04:10:29.516Z,"    0"
2016-07-31T04:11:33.186Z,"    0"
2016-07-31T04:12:36.850Z,"    0"
2016-07-31T04:14:43.784Z,"    0"
2016-07-31T04:15:47.449Z,"    0"
2016-07-31T04:16:51.106Z,"    0"
2016-07-31T04:17:54.766Z,"    0"
2016-07-31T04:18:58.440Z,"    0"
2016-07-31T04:20:02.112Z,"    0"
2016-07-31T04:21:05.818Z,"    0"
2016-07-31T04:22:09.461Z,"    0"
2016-07-31T04:23:13.147Z,"    0"
2016-07-31T04:24:16.814Z,"    0"
2016-07-31T04:25:20.486Z,"    0"
2016-07-31T04:26:24.173Z,"    0"
2016-07-31T04:27:27.824Z,"    0"
2016-07-31T04:28:31.493Z,"    0"
2016-07-31T04:29:35.122Z,"    0"
2016-07-31T04:30:38.757Z,"    0"
2016-07-31T04:31:42.454Z,"    0"
2016-07-31T04:32:46.117Z,"    0"
2016-07-31T04:33:49.780Z,"    0"
2016-07-31T04:34:53.440Z,"    0"
2016-07-31T04:35:57.091Z,"    0"
2016-07-31T04:37:00.777Z,"    0"
2016-07-31T04:38:04.444Z,"    0"
2016-07-31T04:39:08.127Z,"    0"
2016-07-31T04:40:11.776Z,"    0"
2016-07-31T04:41:15.419Z,"    0"
2016-07-31T04:42:19.089Z,"    0"
2016-07-31T04:43:22.756Z,"    0"
2016-07-31T04:44:26.604Z,"    0"
2016-07-31T04:45:30.289Z,"    0"
2016-07-31T04:46:33.950Z,"    0"
2016-07-31T04:47:37.797Z,"    0"
2016-07-31T04:48:41.422Z,"    0"
2016-07-31T04:49:45.116Z,"    0"
2016-07-31T04:50:48.781Z,"    0"
2016-07-31T04:51:52.418Z,"    0"
2016-07-31T04:52:56.089Z,"    0"
2016-07-31T04:53:59.762Z,"    0"
2016-07-31T04:55:03.391Z,"    0"
2016-07-31T04:56:07.071Z,"    0"
2016-07-31T04:57:10.761Z,"    0"
2016-07-31T04:58:14.427Z,"    0"
2016-07-31T04:59:18.089Z,"    0"
2016-07-31T05:00:21.754Z,"    0"
2016-07-31T05:01:25.423Z,"    0"
2016-07-31T05:02:29.069Z,"    0"
2016-07-31T05:03:32.707Z,"    0"
2016-07-31T05:04:37.253Z,"    0"
2016-07-31T05:05:40.809Z,"    0"
2016-07-31T05:06:45.356Z,"    0"
2016-07-31T05:07:48.978Z,"    0"
2016-07-31T05:08:52.655Z,"    0"
2016-07-31T05:09:56.306Z,"    0"
2016-07-31T05:10:59.955Z,"    0"
2016-07-31T05:12:03.591Z,"    0"
2016-07-31T05:13:07.265Z,"    0"
2016-07-31T05:14:10.922Z,"    0"
2016-07-31T05:15:14.594Z,"    0"
2016-07-31T05:16:18.294Z,"    0"
2016-07-31T05:17:21.942Z,"    0"
2016-07-31T05:18:25.574Z,"    0"
2016-07-31T05:19:29.236Z,"    0"
2016-07-31T05:20:32.915Z,"    0"
2016-07-31T05:21:36.588Z,"    0"
2016-07-31T05:22:40.225Z,"    0"
2016-07-31T05:23:43.943Z,"    0"
2016-07-31T05:24:47.609Z,"    0"
2016-07-31T05:25:51.280Z,"    0"
2016-07-31T05:26:54.938Z,"    0"
2016-07-31T05:27:58.588Z,"    0"
2016-07-31T05:30:05.515Z,"    0"
2016-07-31T05:31:09.379Z,"    0"
2016-07-31T05:32:13.017Z,"    0"
2016-07-31T05:33:16.849Z,"    0"
2016-07-31T05:34:20.508Z,"    0"
2016-07-31T05:35:24.151Z,"    0"
2016-07-31T05:36:27.825Z,"    0"
2016-07-31T05:37:31.670Z,"    0"
2016-07-31T05:38:35.315Z,"    0"
2016-07-31T05:39:39.004Z,"    0"
2016-07-31T05:40:42.660Z,"    0"
2016-07-31T05:41:46.340Z,"    0"
2016-07-31T05:42:50.009Z,"    0"
2016-07-31T05:43:53.843Z,"    0"
2016-07-31T05:44:57.492Z,"    0"
2016-07-31T05:46:01.154Z,"    0"
2016-07-31T05:47:04.800Z,"    0"
2016-07-31T05:48:08.433Z,"    0"
2016-07-31T05:49:12.097Z,"    0"
2016-07-31T05:50:15.739Z,"    0"
2016-07-31T05:51:19.405Z,"    0"
2016-07-31T05:52:23.062Z,"    0"
2016-07-31T05:53:26.707Z,"    0"
2016-07-31T05:54:30.557Z,"    0"
2016-07-31T05:55:34.212Z,"    0"
2016-07-31T05:56:37.893Z,"    0"
2016-07-31T05:57:41.544Z,"    0"
2016-07-31T05:58:45.226Z,"    0"
2016-07-31T05:59:48.928Z,"    0"
2016-07-31T06:00:52.589Z,"    0"
2016-07-31T06:01:56.275Z,"    0"
2016-07-31T06:02:59.967Z,"    0"
2016-07-31T06:04:03.630Z,"    0"
2016-07-31T06:05:07.275Z,"    0"
2016-07-31T06:06:10.919Z,"    0"
2016-07-31T06:07:14.577Z,"    0"
2016-07-31T06:08:18.209Z,"    0"
2016-07-31T06:09:21.861Z,"    0"
2016-07-31T06:10:25.533Z,"    0"
2016-07-31T06:11:29.181Z,"    0"
2016-07-31T06:12:32.848Z,"    0"
2016-07-31T06:13:36.508Z,"    0"
2016-07-31T06:14:40.171Z,"    0"
2016-07-31T06:15:43.825Z,"    0"
2016-07-31T06:16:47.493Z,"    0"
2016-07-31T06:17:51.184Z,"    0"
2016-07-31T06:18:54.836Z,"    0"
2016-07-31T06:19:58.493Z,"    0"
2016-07-31T06:21:02.183Z,"    0"
2016-07-31T06:22:05.819Z,"    0"
2016-07-31T06:23:09.489Z,"    0"
2016-07-31T06:24:13.142Z,"    0"
2016-07-31T06:25:16.809Z,"    0"
2016-07-31T06:26:20.459Z,"    0"
2016-07-31T06:27:24.118Z,"    0"
2016-07-31T06:28:27.769Z,"    0"
2016-07-31T06:29:31.460Z,"    0"
2016-07-31T06:30:35.310Z,"    0"
2016-07-31T06:31:38.974Z,"    0"
2016-07-31T06:32:42.647Z,"    0"
2016-07-31T06:33:46.337Z,"    0"
2016-07-31T06:34:50.041Z,"    0"
2016-07-31T06:35:53.729Z,"    0"
2016-07-31T06:36:57.384Z,"    0"
2016-07-31T06:38:01.030Z,"    0"
2016-07-31T06:39:04.720Z,"    0"
2016-07-31T06:40:08.373Z,"    0"
2016-07-31T06:41:12.206Z,"    0"
2016-07-31T06:42:15.851Z,"    0"
2016-07-31T06:43:19.527Z,"    0"
2016-07-31T06:45:26.462Z,"    0"
2016-07-31T06:46:30.118Z,"    0"
2016-07-31T06:47:33.793Z,"    0"
2016-07-31T06:48:37.430Z,"    0"
2016-07-31T06:49:41.086Z,"    0"
2016-07-31T06:50:44.755Z,"    0"
2016-07-31T06:51:48.421Z,"    0"
2016-07-31T06:52:52.103Z,"    0"
2016-07-31T06:53:55.755Z,"    0"
2016-07-31T06:54:59.420Z,"    0"
2016-07-31T06:56:03.092Z,"    0"
2016-07-31T06:57:06.735Z,"    0"
2016-07-31T06:58:10.368Z,"    0"
2016-07-31T06:59:14.016Z,"    0"
2016-07-31T07:00:17.653Z,"    0"
2016-07-31T07:01:21.339Z,"    0"
2016-07-31T07:02:25.001Z,"    0"
2016-07-31T07:03:28.670Z,"    0"
2016-07-31T07:04:32.343Z,"    0"
2016-07-31T07:05:36.011Z,"    0"
2016-07-31T07:06:39.872Z,"    0"
2016-07-31T07:07:43.539Z,"    0"
2016-07-31T07:08:47.173Z,"    0"
2016-07-31T07:09:51.058Z,"    0"
2016-07-31T07:10:54.682Z,"    0"
2016-07-31T07:11:58.332Z,"    0"
2016-07-31T07:13:02.005Z,"    0"
2016-07-31T07:14:05.691Z,"    0"
2016-07-31T07:15:09.347Z,"    0"
2016-07-31T07:16:13.000Z,"    0"
2016-07-31T07:17:16.673Z,"    0"
2016-07-31T07:18:20.499Z,"    0"
2016-07-31T07:19:24.175Z,"    0"
2016-07-31T07:20:27.871Z,"    0"
2016-07-31T07:21:31.643Z,"    0"
2016-07-31T07:22:35.290Z,"    0"
2016-07-31T07:23:38.944Z,"    0"
2016-07-31T07:24:42.619Z,"    0"
2016-07-31T07:25:46.292Z,"    0"
2016-07-31T07:26:49.969Z,"    0"
2016-07-31T07:27:53.630Z,"    0"
2016-07-31T07:28:57.290Z,"    5"
2016-07-31T07:30:00.957Z,"    5"
2016-07-31T07:31:04.628Z,"    5"
2016-07-31T07:32:08.302Z,"    5"
2016-07-31T07:33:12.050Z,"    5"
2016-07-31T07:34:15.722Z,"    0"
2016-07-31T07:35:19.367Z,"    5"
2016-07-31T07:36:23.039Z,"    5"
2016-07-31T07:37:26.886Z,"    5"
2016-07-31T07:38:30.495Z,"    5"
2016-07-31T07:39:34.129Z,"    5"
2016-07-31T07:40:37.802Z,"    5"
2016-07-31T07:41:41.473Z,"    5"
2016-07-31T07:42:45.161Z,"    5"
2016-07-31T07:43:48.820Z,"    5"
2016-07-31T07:44:52.507Z,"    0"
2016-07-31T07:45:56.195Z,"    0"
2016-07-31T07:46:59.858Z,"    0"
2016-07-31T07:48:03.514Z,"    0"
2016-07-31T07:49:07.185Z,"    0"
2016-07-31T07:50:10.827Z,"    0"
2016-07-31T07:51:14.493Z,"    0"
2016-07-31T07:52:18.363Z,"    0"
2016-07-31T07:53:22.016Z,"    0"
2016-07-31T07:54:25.691Z,"    0"
2016-07-31T07:55:29.344Z,"    0"
2016-07-31T07:56:33.030Z,"    0"
2016-07-31T07:57:36.689Z,"    0"
2016-07-31T07:58:40.355Z,"    0"
2016-07-31T07:59:44.016Z,"    0"
2016-07-31T08:00:47.663Z,"    5"
2016-07-31T08:01:51.341Z,"    0"
2016-07-31T08:02:55.223Z,"    5"
2016-07-31T08:03:58.862Z,"    5"
2016-07-31T08:05:02.778Z,"    5"
2016-07-31T08:06:06.452Z,"    5"
2016-07-31T08:07:10.126Z,"    5"
2016-07-31T08:08:13.766Z,"    5"
2016-07-31T08:09:17.437Z,"    5"
2016-07-31T08:10:21.133Z,"    5"
2016-07-31T08:11:24.810Z,"    5"
2016-07-31T08:12:28.472Z,"    5"
2016-07-31T08:13:32.158Z,"    5"
2016-07-31T08:15:39.070Z,"    5"
2016-07-31T08:16:42.728Z,"    5"
2016-07-31T08:17:46.412Z,"    5"
2016-07-31T08:18:50.055Z,"    5"
2016-07-31T08:19:53.706Z,"    5"
2016-07-31T08:20:57.324Z,"    5"
2016-07-31T08:22:00.989Z,"    5"
2016-07-31T08:23:04.668Z,"    5"
2016-07-31T08:24:08.334Z,"    5"
2016-07-31T08:25:12.025Z,"    5"
2016-07-31T08:26:15.694Z,"    5"
2016-07-31T08:27:19.347Z,"    5"
2016-07-31T08:28:22.993Z,"    5"
2016-07-31T08:29:26.658Z,"    5"
2016-07-31T08:30:30.348Z,"    5"
2016-07-31T08:31:34.030Z,"    5"
2016-07-31T08:32:37.682Z,"    5"
2016-07-31T08:33:41.369Z,"    5"
2016-07-31T08:34:45.025Z,"    5"
2016-07-31T08:35:48.690Z,"   10"
2016-07-31T08:36:52.347Z,"    5"
2016-07-31T08:37:56.038Z,"    5"
2016-07-31T08:38:59.712Z,"    5"
2016-07-31T08:40:03.371Z,"   10"
2016-07-31T08:41:07.072Z,"   20"
2016-07-31T08:42:10.738Z,"   10"
2016-07-31T08:43:14.458Z,"    5"
2016-07-31T08:44:18.115Z,"   10"
2016-07-31T08:45:21.785Z,"    5"
2016-07-31T08:46:25.499Z,"    5"
2016-07-31T08:47:29.173Z,"    5"
2016-07-31T08:48:32.789Z,"    5"
2016-07-31T08:49:36.433Z,"    5"
2016-07-31T08:50:40.091Z,"   10"
2016-07-31T08:51:43.755Z,"    5"
2016-07-31T08:52:47.441Z,"    5"
2016-07-31T08:53:51.085Z,"    5"
2016-07-31T08:54:54.962Z,"    0"
2016-07-31T08:55:58.640Z,"    0"
2016-07-31T08:57:02.306Z,"    0"
2016-07-31T08:58:06.167Z,"    0"
2016-07-31T08:59:09.858Z,"    0"
2016-07-31T09:00:13.512Z,"    5"
2016-07-31T09:01:17.150Z,"    5"
2016-07-31T09:02:20.817Z,"    5"
2016-07-31T09:03:24.463Z,"    5"
2016-07-31T09:04:28.103Z,"    5"
2016-07-31T09:05:31.969Z,"    5"
2016-07-31T09:06:35.642Z,"    5"
2016-07-31T09:07:39.490Z,"    5"
2016-07-31T09:08:43.140Z,"    5"
2016-07-31T09:09:46.771Z,"    5"
2016-07-31T09:10:50.422Z,"    5"
2016-07-31T09:11:54.104Z,"    5"
2016-07-31T09:12:57.749Z,"    5"
2016-07-31T09:14:01.407Z,"    5"
2016-07-31T09:15:05.058Z,"    5"
2016-07-31T09:16:08.731Z,"    5"
2016-07-31T09:17:12.592Z,"   10"
2016-07-31T09:18:16.259Z,"   10"
2016-07-31T09:19:20.136Z,"   15"
2016-07-31T09:20:23.797Z,"   15"
2016-07-31T09:21:27.489Z,"   20"
2016-07-31T09:22:31.217Z,"   15"
2016-07-31T09:23:34.882Z,"   10"
2016-07-31T09:24:38.754Z,"   10"
2016-07-31T09:25:42.424Z,"   10"
2016-07-31T09:26:46.116Z,"   15"
2016-07-31T09:27:49.756Z,"   15"
2016-07-31T09:28:53.443Z,"   15"
2016-07-31T09:31:00.422Z,"   20"
2016-07-31T09:32:04.065Z,"   20"
2016-07-31T09:33:07.947Z,"   20"
2016-07-31T09:34:11.602Z,"   20"
2016-07-31T09:35:15.503Z,"   20"
2016-07-31T09:36:19.179Z,"   30"
2016-07-31T09:37:23.073Z,"   40"
2016-07-31T09:38:26.754Z,"   25"
2016-07-31T09:39:30.447Z,"   20"
2016-07-31T09:40:34.106Z,"   30"
2016-07-31T09:41:37.766Z,"   25"
2016-07-31T09:42:41.436Z,"   30"
2016-07-31T09:43:45.129Z,"   20"
2016-07-31T09:44:48.811Z,"   15"
2016-07-31T09:45:52.460Z,"   15"
2016-07-31T09:46:56.305Z,"   10"
2016-07-31T09:47:59.984Z,"   10"
2016-07-31T09:49:03.618Z,"   10"
2016-07-31T09:50:07.281Z,"   10"
2016-07-31T09:51:10.932Z,"   10"
2016-07-31T09:52:14.629Z,"   10"
2016-07-31T09:53:18.257Z,"   10"
2016-07-31T09:54:21.930Z,"   10"
2016-07-31T09:55:25.581Z,"   10"
2016-07-31T09:56:29.207Z,"    5"
2016-07-31T09:57:32.868Z,"    5"
2016-07-31T09:58:36.488Z,"    5"
2016-07-31T09:59:40.156Z,"    5"
2016-07-31T10:00:43.813Z,"    5"
2016-07-31T10:01:47.473Z,"    5"
2016-07-31T10:02:51.138Z,"    5"
2016-07-31T10:03:54.848Z,"   10"
2016-07-31T10:04:58.532Z,"    5"
2016-07-31T10:06:02.378Z,"    5"
2016-07-31T10:07:06.032Z,"    5"
2016-07-31T10:08:09.713Z,"    5"
2016-07-31T10:09:13.352Z,"    5"
2016-07-31T10:10:17.044Z,"    5"
2016-07-31T10:11:20.708Z,"    5"
2016-07-31T10:12:24.382Z,"    5"
2016-07-31T10:13:28.050Z,"    5"
2016-07-31T10:14:31.725Z,"    0"
2016-07-31T10:15:35.377Z,"    0"
2016-07-31T10:16:39.069Z,"    5"
2016-07-31T10:17:42.724Z,"    5"
2016-07-31T10:18:46.399Z,"    5"
2016-07-31T10:19:50.093Z,"    5"
2016-07-31T10:20:53.780Z,"    5"
2016-07-31T10:21:57.441Z,"    5"
2016-07-31T10:23:01.107Z,"    5"
2016-07-31T10:24:04.800Z,"    5"
2016-07-31T10:25:08.494Z,"    5"
2016-07-31T10:26:12.116Z,"    0"
2016-07-31T10:27:15.776Z,"    0"
2016-07-31T10:38:55.847Z,"    0"
2016-07-31T10:40:18.354Z,"    0"
2016-07-31T10:41:21.797Z,"    5"
2016-07-31T10:42:25.609Z,"    5"
2016-07-31T10:43:29.224Z,"    5"
2016-07-31T10:44:32.858Z,"    5"
2016-07-31T10:45:36.504Z,"    5"
2016-07-31T10:46:40.185Z,"    5"
2016-07-31T10:47:43.861Z,"    5"
2016-07-31T10:48:47.481Z,"    5"
2016-07-31T10:49:51.184Z,"    5"
2016-07-31T10:50:54.876Z,"    5"
2016-07-31T10:51:58.529Z,"    5"
2016-07-31T10:53:02.199Z,"    5"
2016-07-31T10:54:05.863Z,"    5"
2016-07-31T10:55:09.537Z,"    5"
2016-07-31T10:56:13.226Z,"    5"
2016-07-31T10:57:16.928Z,"    5"
2016-07-31T10:58:20.597Z,"    5"
2016-07-31T10:59:24.314Z,"    5"
2016-07-31T11:01:31.246Z,"    0"
2016-07-31T11:02:34.929Z,"    0"
2016-07-31T11:03:38.628Z,"    5"
2016-07-31T11:04:42.286Z,"    5"
2016-07-31T11:05:45.939Z,"    5"
2016-07-31T11:06:49.651Z,"    0"
2016-07-31T11:07:53.281Z,"    0"
2016-07-31T11:08:56.924Z,"    0"
2016-07-31T11:10:00.619Z,"    5"
2016-07-31T11:11:04.327Z,"    5"
2016-07-31T11:12:07.999Z,"    5"
2016-07-31T11:13:11.670Z,"    5"
2016-07-31T11:14:15.543Z,"    5"
2016-07-31T11:16:22.507Z,"    5"
2016-07-31T11:17:26.186Z,"    5"
2016-07-31T11:18:30.079Z,"    5"
2016-07-31T11:19:33.740Z,"    5"
2016-07-31T11:20:37.430Z,"    5"
2016-07-31T11:21:41.103Z,"    5"
2016-07-31T11:22:44.802Z,"    5"
2016-07-31T11:23:48.928Z,"    5"
2016-07-31T11:24:52.598Z,"    5"
2016-07-31T11:25:56.286Z,"    5"
2016-07-31T11:27:00.133Z,"    5"
2016-07-31T11:28:03.789Z,"    5"
2016-07-31T11:29:07.475Z,"    5"
2016-07-31T11:30:11.157Z,"    5"
2016-07-31T11:31:14.804Z,"    5"
2016-07-31T11:32:18.482Z,"    5"
2016-07-31T11:33:22.170Z,"    5"
2016-07-31T11:34:25.862Z,"    5"
2016-07-31T11:35:29.589Z,"    5"
2016-07-31T11:36:33.476Z,"    5"
2016-07-31T11:37:37.174Z,"   10"
2016-07-31T11:38:40.857Z,"    5"
2016-07-31T11:39:44.573Z,"    5"
2016-07-31T11:40:48.283Z,"    5"
2016-07-31T11:41:51.929Z,"   10"
2016-07-31T11:42:55.596Z,"    5"
2016-07-31T11:43:59.306Z,"    5"
2016-07-31T11:45:02.969Z,"    5"
2016-07-31T11:46:06.634Z,"    5"
2016-07-31T11:47:10.324Z,"    5"
2016-07-31T11:48:13.992Z,"    5"
2016-07-31T11:49:17.689Z,"    5"
2016-07-31T11:50:21.536Z,"    5"
2016-07-31T11:51:25.219Z,"    5"
2016-07-31T11:52:28.883Z,"    0"
2016-07-31T11:53:32.552Z,"    0"
2016-07-31T11:54:36.208Z,"    0"
2016-07-31T11:55:39.874Z,"    5"
2016-07-31T11:56:43.629Z,"    5"
2016-07-31T11:57:47.331Z,"   10"
2016-07-31T11:58:51.017Z,"    5"
2016-07-31T11:59:54.686Z,"    5"
2016-07-31T12:00:58.368Z,"    5"
2016-07-31T12:02:02.053Z,"    5"
2016-07-31T12:03:05.692Z,"    5"
2016-07-31T12:04:09.411Z,"    5"
2016-07-31T12:05:13.070Z,"    5"
2016-07-31T12:06:16.762Z,"    0"
2016-07-31T12:07:20.417Z,"    0"
2016-07-31T12:08:24.084Z,"    0"
2016-07-31T12:09:27.775Z,"    0"
2016-07-31T12:10:31.408Z,"    0"
2016-07-31T12:11:35.090Z,"    0"
2016-07-31T12:12:38.788Z,"    0"
2016-07-31T12:13:42.457Z,"    0"
2016-07-31T12:14:46.435Z,"    0"
2016-07-31T12:15:50.092Z,"    0"
2016-07-31T12:16:53.767Z,"    0"
2016-07-31T12:17:58.351Z,"    0"
2016-07-31T12:19:01.988Z,"    0"
2016-07-31T12:20:05.682Z,"    0"
2016-07-31T12:21:09.344Z,"    0"
2016-07-31T12:22:13.024Z,"    0"
2016-07-31T12:23:16.678Z,"    0"
2016-07-31T12:24:20.450Z,"    0"
2016-07-31T12:25:24.155Z,"    0"
2016-07-31T12:26:27.920Z,"    0"
2016-07-31T12:27:31.624Z,"    0"
2016-07-31T12:28:35.488Z,"    0"
2016-07-31T12:29:39.182Z,"    0"
2016-07-31T12:31:46.143Z,"    0"
2016-07-31T12:32:49.806Z,"    0"
2016-07-31T12:33:53.471Z,"    0"
2016-07-31T12:34:57.179Z,"    0"
2016-07-31T12:36:00.877Z,"    0"
2016-07-31T12:37:04.571Z,"    0"
2016-07-31T12:38:08.268Z,"    0"
2016-07-31T12:39:11.941Z,"    0"
2016-07-31T12:40:15.643Z,"    0"
2016-07-31T12:41:19.336Z,"    0"
2016-07-31T12:42:23.027Z,"    0"
2016-07-31T12:43:26.714Z,"    0"
2016-07-31T12:44:30.370Z,"    0"
2016-07-31T12:45:34.071Z,"    0"
2016-07-31T12:46:37.768Z,"    0"
2016-07-31T12:47:41.406Z,"    0"
2016-07-31T12:48:45.105Z,"    5"
2016-07-31T12:49:48.776Z,"    5"
2016-07-31T12:50:52.430Z,"    5"
2016-07-31T12:51:56.105Z,"    5"
2016-07-31T12:52:59.775Z,"   10"
2016-07-31T12:54:03.625Z,"    5"
2016-07-31T12:55:07.317Z,"    5"
2016-07-31T12:56:10.995Z,"   10"
2016-07-31T12:57:14.685Z,"   10"
2016-07-31T12:58:18.341Z,"    5"
2016-07-31T12:59:21.999Z,"    5"
2016-07-31T13:00:25.717Z,"    5"
2016-07-31T13:01:29.404Z,"    5"
2016-07-31T13:02:33.071Z,"    5"
2016-07-31T13:03:36.785Z,"    0"
2016-07-31T13:04:40.486Z,"    0"
2016-07-31T13:05:44.185Z,"    0"
2016-07-31T13:06:47.864Z,"    0"
2016-07-31T13:07:51.544Z,"    0"
2016-07-31T13:08:55.232Z,"    0"
2016-07-31T13:09:58.932Z,"    0"
2016-07-31T13:11:02.621Z,"    0"
2016-07-31T13:12:06.292Z,"    0"
2016-07-31T13:13:09.977Z,"    0"